Eagle Harbor, Michigan
Current Conditions -  °F | °C
As of 2:53 AM on Sunday 23 Nov 2014 (Local Time) from KCMX Reporting Station
Overcast Overcast  
Wind Chill: 30°   Ceiling: 700
Heat Index: 34°   Visibility: 8mi
Dew Point: 30°   Wind: 5mph
Humidity: 85%   Direction: 130°SE
Pressure: 29.61"   Gusts: NA
Location:  47.3621°N, 88.1281°W
Report Text: KCMX 230753Z AUTO 13004KT 8SM OVC007 01/M01 A2961 RMK AO2 SLP038 T00111011
Loading
Personal Weather Stations






























Interactive Weather Map New forecast layout! Learn more

10-Day Weather Forecast

Advertisements
Track Severe Weather on mobile